Startpagina
METAR-TAF:

METAR-TAF

Vliegvelden :

Productieplatform

Awg-1, Nederland

breedte: 53-29-30N, lengte: 5-56-30E, hoogte: 33 m

Actueel weer

Dit bericht is 42 minuten geleden gemaakt, om 04:25 UTC
Wind 7 kt uit het zuidwesten
Temperatuur 6°C
Vochtigheid 56%
Druk 1022 hPa
Zicht 10 km of meer

METAR: EHMA 230425Z AUTO 23007KT 9999 NCD 06/M02 Q1022

Tijdstip: 07:07 (05:07 UTC)


TAF: ontbreekt

Waarnemingen en weersverwachtingen van meer dan 4000 vliegvelden (METAR en TAF).

De beschikbare stations zijn de gele en rode punten op de kaart.

Ga met uw muis naar het station om de naam te zien.

Klik dan om waarnemingen en weersverwachtingen te zien.

kaart wijzigen: klik op de groene knoppen met een zwart kruis om in te zoomen, op de groene knop met een streepje om uit te zoomen of op de groene pijlen voor aangrenzende kaarten.


METAR-TAF: